Condicions actuals
Parcialment ennuvolat



Pressió:
1016.92 (hPa) - 30.03 (inHG)
Visibilitat:

10.0 (km) - 6.2 (miles)
Base de Núvols

762 (Mts) - 2500 (Feets)
   Temperatura
24  °C
Temperatura
16  °C
P.ros.
61  %
 Humitat
   Velocitat del Vent
16  km/h
9  kts
10  mph
4.5  m/s
   Vent Direcció
N
45°
E
90°
135°
S
180°
225°
O
270°
315°
 80°

Del   Est
   Airport Data
LEBL
Barcelona International Airport
Metar :LEBL 241230Z 08009KT 9999 FEW025 BKN048 24/16 Q1017 NOSIG
Fri 24th September 14:30 pm
   Raw Metar Info
Raw METAR is the most common format in the world for the transmission of observational weather data. It is highly standardized through the International Civil Aviation Organization (ICAO), which allows it to be understood throughout most of the world.
   API Info
Data Provided by
https://www.checkwx.com/weather/LEBL

Aviation Weather providing METAR, TAF, AIRMET, SIGMET and OUTLOOK Weather Reports
   © Info
CSS/SVG/PHP scripts were developed by weather34.com for use in the weather34 template © 2015-2021

Guide Info provided by Metar-Wikipedia